sensor_id;sensor_type;location;lat;lon;timestamp;P1;P2;P0
57451;PMS7003;54295;51.224;-0.164;2022-09-02T00:01:10;17;17;
57451;PMS7003;54295;51.224;-0.164;2022-09-02T00:03:41;18;17;
57451;PMS7003;54295;51.224;-0.164;2022-09-02T00:06:10;18;18;
57451;PMS7003;54295;51.224;-0.164;2022-09-02T00:08:39;14;14;
57451;PMS7003;54295;51.224;-0.164;2022-09-02T00:11:07;16;16;
57451;PMS7003;54295;51.224;-0.164;2022-09-02T00:13:38;17;16;
57451;PMS7003;54295;51.224;-0.164;2022-09-02T00:16:06;17;17;
57451;PMS7003;54295;51.224;-0.164;2022-09-02T00:18:33;18;18;
57451;PMS7003;54295;51.224;-0.164;2022-09-02T00:21:01;19;19;
57451;PMS7003;54295;51.224;-0.164;2022-09-02T00:23:28;19;19;
57451;PMS7003;54295;51.224;-0.164;2022-09-02T00:25:55;20;20;
57451;PMS7003;54295;51.224;-0.164;2022-09-02T00:28:23;20;19;
57451;PMS7003;54295;51.224;-0.164;2022-09-02T00:30:50;18;18;
57451;PMS7003;54295;51.224;-0.164;2022-09-02T00:33:18;20;19;
57451;PMS7003;54295;51.224;-0.164;2022-09-02T00:35:45;19;18;
57451;PMS7003;54295;51.224;-0.164;2022-09-02T00:38:13;23;21;
57451;PMS7003;54295;51.224;-0.164;2022-09-02T00:40:42;20;20;
57451;PMS7003;54295;51.224;-0.164;2022-09-02T00:43:15;24;22;
57451;PMS7003;54295;51.224;-0.164;2022-09-02T00:45:50;18;18;
57451;PMS7003;54295;51.224;-0.164;2022-09-02T00:48:17;17;15;
57451;PMS7003;54295;51.224;-0.164;2022-09-02T00:50:44;16;16;
57451;PMS7003;54295;51.224;-0.164;2022-09-02T00:53:12;17;17;
57451;PMS7003;54295;51.224;-0.164;2022-09-02T00:55:40;17;17;
57451;PMS7003;54295;51.224;-0.164;2022-09-02T00:58:12;19;18;
57451;PMS7003;54295;51.224;-0.164;2022-09-02T01:00:43;19;19;
57451;PMS7003;54295;51.224;-0.164;2022-09-02T01:03:12;17;17;
57451;PMS7003;54295;51.224;-0.164;2022-09-02T01:05:42;16;16;
57451;PMS7003;54295;51.224;-0.164;2022-09-02T01:08:13;18;17;
57451;PMS7003;54295;51.224;-0.164;2022-09-02T01:10:42;16;15;
57451;PMS7003;54295;51.224;-0.164;2022-09-02T01:13:11;16;15;
57451;PMS7003;54295;51.224;-0.164;2022-09-02T01:15:41;20;18;
57451;PMS7003;54295;51.224;-0.164;2022-09-02T01:18:19;15;15;
57451;PMS7003;54295;51.224;-0.164;2022-09-02T01:20:48;15;15;
57451;PMS7003;54295;51.224;-0.164;2022-09-02T01:23:22;12;12;
57451;PMS7003;54295;51.224;-0.164;2022-09-02T01:25:50;15;15;
57451;PMS7003;54295;51.224;-0.164;2022-09-02T01:28:18;13;13;
57451;PMS7003;54295;51.224;-0.164;2022-09-02T01:30:46;14;14;
57451;PMS7003;54295;51.224;-0.164;2022-09-02T01:33:17;14;14;
57451;PMS7003;54295;51.224;-0.164;2022-09-02T01:35:45;13;13;
57451;PMS7003;54295;51.224;-0.164;2022-09-02T01:38:13;15;14;
57451;PMS7003;54295;51.224;-0.164;2022-09-02T01:40:40;15;14;
57451;PMS7003;54295;51.224;-0.164;2022-09-02T01:43:09;14;14;
57451;PMS7003;54295;51.224;-0.164;2022-09-02T01:45:38;14;14;
57451;PMS7003;54295;51.224;-0.164;2022-09-02T01:48:07;14;14;
57451;PMS7003;54295;51.224;-0.164;2022-09-02T01:50:36;15;15;
57451;PMS7003;54295;51.224;-0.164;2022-09-02T01:53:05;12;12;
57451;PMS7003;54295;51.224;-0.164;2022-09-02T01:55:33;12;12;
57451;PMS7003;54295;51.224;-0.164;2022-09-02T01:58:01;14;13;
57451;PMS7003;54295;51.224;-0.164;2022-09-02T02:02:21;15;15;
57451;PMS7003;54295;51.224;-0.164;2022-09-02T02:04:49;13;12;
57451;PMS7003;54295;51.224;-0.164;2022-09-02T02:07:17;13;13;
57451;PMS7003;54295;51.224;-0.164;2022-09-02T02:09:45;15;14;
57451;PMS7003;54295;51.224;-0.164;2022-09-02T02:12:12;15;15;
57451;PMS7003;54295;51.224;-0.164;2022-09-02T02:14:45;17;17;
57451;PMS7003;54295;51.224;-0.164;2022-09-02T02:17:12;14;13;
57451;PMS7003;54295;51.224;-0.164;2022-09-02T02:19:40;17;15;
57451;PMS7003;54295;51.224;-0.164;2022-09-02T02:22:08;14;14;
57451;PMS7003;54295;51.224;-0.164;2022-09-02T02:24:36;17;17;
57451;PMS7003;54295;51.224;-0.164;2022-09-02T02:27:03;14;14;
57451;PMS7003;54295;51.224;-0.164;2022-09-02T02:29:30;14;14;
57451;PMS7003;54295;51.224;-0.164;2022-09-02T02:31:57;14;14;
57451;PMS7003;54295;51.224;-0.164;2022-09-02T02:34:25;17;16;
57451;PMS7003;54295;51.224;-0.164;2022-09-02T02:36:52;16;16;
57451;PMS7003;54295;51.224;-0.164;2022-09-02T02:39:19;16;15;
57451;PMS7003;54295;51.224;-0.164;2022-09-02T02:41:46;17;17;
57451;PMS7003;54295;51.224;-0.164;2022-09-02T02:44:14;15;15;
57451;PMS7003;54295;51.224;-0.164;2022-09-02T02:46:41;16;16;
57451;PMS7003;54295;51.224;-0.164;2022-09-02T02:49:08;16;16;
57451;PMS7003;54295;51.224;-0.164;2022-09-02T02:51:35;13;13;
57451;PMS7003;54295;51.224;-0.164;2022-09-02T02:54:03;18;18;
57451;PMS7003;54295;51.224;-0.164;2022-09-02T02:56:31;22;20;
57451;PMS7003;54295;51.224;-0.164;2022-09-02T02:58:58;18;17;
57451;PMS7003;54295;51.224;-0.164;2022-09-02T03:01:25;19;17;
57451;PMS7003;54295;51.224;-0.164;2022-09-02T03:03:53;18;17;
57451;PMS7003;54295;51.224;-0.164;2022-09-02T03:06:27;18;18;
57451;PMS7003;54295;51.224;-0.164;2022-09-02T03:09:06;17;16;
57451;PMS7003;54295;51.224;-0.164;2022-09-02T03:11:34;18;17;
57451;PMS7003;54295;51.224;-0.164;2022-09-02T03:14:11;16;15;
57451;PMS7003;54295;51.224;-0.164;2022-09-02T03:16:45;15;15;
57451;PMS7003;54295;51.224;-0.164;2022-09-02T03:19:12;13;12;
57451;PMS7003;54295;51.224;-0.164;2022-09-02T03:21:57;15;14;
57451;PMS7003;54295;51.224;-0.164;2022-09-02T03:24:24;16;16;
57451;PMS7003;54295;51.224;-0.164;2022-09-02T03:26:51;18;16;
57451;PMS7003;54295;51.224;-0.164;2022-09-02T03:29:18;14;14;
57451;PMS7003;54295;51.224;-0.164;2022-09-02T03:31:45;16;16;
57451;PMS7003;54295;51.224;-0.164;2022-09-02T03:34:13;14;13;
57451;PMS7003;54295;51.224;-0.164;2022-09-02T03:36:40;13;12;
57451;PMS7003;54295;51.224;-0.164;2022-09-02T03:39:07;17;15;
57451;PMS7003;54295;51.224;-0.164;2022-09-02T03:41:36;17;17;
57451;PMS7003;54295;51.224;-0.164;2022-09-02T03:44:03;12;12;
57451;PMS7003;54295;51.224;-0.164;2022-09-02T03:46:30;16;16;
57451;PMS7003;54295;51.224;-0.164;2022-09-02T03:48:57;17;16;
57451;PMS7003;54295;51.224;-0.164;2022-09-02T03:51:25;18;17;
57451;PMS7003;54295;51.224;-0.164;2022-09-02T03:53:53;15;15;
57451;PMS7003;54295;51.224;-0.164;2022-09-02T03:56:20;15;14;
57451;PMS7003;54295;51.224;-0.164;2022-09-02T03:58:48;15;15;
57451;PMS7003;54295;51.224;-0.164;2022-09-02T04:01:18;13;13;
57451;PMS7003;54295;51.224;-0.164;2022-09-02T04:03:47;17;17;
57451;PMS7003;54295;51.224;-0.164;2022-09-02T04:06:17;15;15;
57451;PMS7003;54295;51.224;-0.164;2022-09-02T04:08:46;16;15;
57451;PMS7003;54295;51.224;-0.164;2022-09-02T04:11:14;16;15;
57451;PMS7003;54295;51.224;-0.164;2022-09-02T04:13:43;15;14;
57451;PMS7003;54295;51.224;-0.164;2022-09-02T04:16:12;16;16;
57451;PMS7003;54295;51.224;-0.164;2022-09-02T04:18:42;14;14;
57451;PMS7003;54295;51.224;-0.164;2022-09-02T04:21:09;16;15;
57451;PMS7003;54295;51.224;-0.164;2022-09-02T04:23:37;14;14;
57451;PMS7003;54295;51.224;-0.164;2022-09-02T04:26:04;17;17;
57451;PMS7003;54295;51.224;-0.164;2022-09-02T04:28:33;16;15;
57451;PMS7003;54295;51.224;-0.164;2022-09-02T04:31:02;19;17;
57451;PMS7003;54295;51.224;-0.164;2022-09-02T04:33:30;16;16;
57451;PMS7003;54295;51.224;-0.164;2022-09-02T04:35:57;15;15;
57451;PMS7003;54295;51.224;-0.164;2022-09-02T04:38:24;15;15;
57451;PMS7003;54295;51.224;-0.164;2022-09-02T04:40:51;16;16;
57451;PMS7003;54295;51.224;-0.164;2022-09-02T04:43:18;15;14;
57451;PMS7003;54295;51.224;-0.164;2022-09-02T04:45:45;15;14;
57451;PMS7003;54295;51.224;-0.164;2022-09-02T04:48:13;14;14;
57451;PMS7003;54295;51.224;-0.164;2022-09-02T04:50:40;13;13;
57451;PMS7003;54295;51.224;-0.164;2022-09-02T04:53:08;16;16;
57451;PMS7003;54295;51.224;-0.164;2022-09-02T04:55:41;18;17;
57451;PMS7003;54295;51.224;-0.164;2022-09-02T04:58:09;17;17;
57451;PMS7003;54295;51.224;-0.164;2022-09-02T05:00:37;15;15;
57451;PMS7003;54295;51.224;-0.164;2022-09-02T05:03:04;18;18;
57451;PMS7003;54295;51.224;-0.164;2022-09-02T05:05:32;16;15;
57451;PMS7003;54295;51.224;-0.164;2022-09-02T05:08:00;18;18;
57451;PMS7003;54295;51.224;-0.164;2022-09-02T05:10:27;19;19;
57451;PMS7003;54295;51.224;-0.164;2022-09-02T05:12:54;16;16;
57451;PMS7003;54295;51.224;-0.164;2022-09-02T05:15:21;17;16;
57451;PMS7003;54295;51.224;-0.164;2022-09-02T05:17:48;19;18;
57451;PMS7003;54295;51.224;-0.164;2022-09-02T05:20:16;17;17;
57451;PMS7003;54295;51.224;-0.164;2022-09-02T05:22:44;19;19;
57451;PMS7003;54295;51.224;-0.164;2022-09-02T05:25:11;19;18;
57451;PMS7003;54295;51.224;-0.164;2022-09-02T05:27:38;18;18;
57451;PMS7003;54295;51.224;-0.164;2022-09-02T05:30:06;18;18;
57451;PMS7003;54295;51.224;-0.164;2022-09-02T05:32:33;16;16;
57451;PMS7003;54295;51.224;-0.164;2022-09-02T05:35:00;16;16;
57451;PMS7003;54295;51.224;-0.164;2022-09-02T05:37:27;16;16;
57451;PMS7003;54295;51.224;-0.164;2022-09-02T05:39:54;17;17;
57451;PMS7003;54295;51.224;-0.164;2022-09-02T05:42:26;19;19;
57451;PMS7003;54295;51.224;-0.164;2022-09-02T05:44:54;20;19;
57451;PMS7003;54295;51.224;-0.164;2022-09-02T05:47:20;15;15;
57451;PMS7003;54295;51.224;-0.164;2022-09-02T05:49:48;17;17;
57451;PMS7003;54295;51.224;-0.164;2022-09-02T05:52:15;19;19;
57451;PMS7003;54295;51.224;-0.164;2022-09-02T05:54:42;17;17;
57451;PMS7003;54295;51.224;-0.164;2022-09-02T05:57:10;14;13;
57451;PMS7003;54295;51.224;-0.164;2022-09-02T05:59:40;17;16;
57451;PMS7003;54295;51.224;-0.164;2022-09-02T06:02:08;18;17;
57451;PMS7003;54295;51.224;-0.164;2022-09-02T06:04:37;18;18;
57451;PMS7003;54295;51.224;-0.164;2022-09-02T06:07:04;17;16;
57451;PMS7003;54295;51.224;-0.164;2022-09-02T06:09:31;16;16;
57451;PMS7003;54295;51.224;-0.164;2022-09-02T06:11:58;19;18;
57451;PMS7003;54295;51.224;-0.164;2022-09-02T06:14:26;19;19;
57451;PMS7003;54295;51.224;-0.164;2022-09-02T06:16:53;19;18;
57451;PMS7003;54295;51.224;-0.164;2022-09-02T06:19:22;19;18;
57451;PMS7003;54295;51.224;-0.164;2022-09-02T06:21:50;19;19;
57451;PMS7003;54295;51.224;-0.164;2022-09-02T06:24:18;16;16;
57451;PMS7003;54295;51.224;-0.164;2022-09-02T06:26:45;19;18;
57451;PMS7003;54295;51.224;-0.164;2022-09-02T06:29:12;21;20;
57451;PMS7003;54295;51.224;-0.164;2022-09-02T06:31:39;20;20;
57451;PMS7003;54295;51.224;-0.164;2022-09-02T06:34:08;18;18;
57451;PMS7003;54295;51.224;-0.164;2022-09-02T06:36:36;19;19;
57451;PMS7003;54295;51.224;-0.164;2022-09-02T06:39:03;19;19;
57451;PMS7003;54295;51.224;-0.164;2022-09-02T06:41:31;18;18;
57451;PMS7003;54295;51.224;-0.164;2022-09-02T06:43:59;19;19;
57451;PMS7003;54295;51.224;-0.164;2022-09-02T06:46:29;21;21;
57451;PMS7003;54295;51.224;-0.164;2022-09-02T06:48:58;18;18;
57451;PMS7003;54295;51.224;-0.164;2022-09-02T06:51:26;18;17;
57451;PMS7003;54295;51.224;-0.164;2022-09-02T06:53:55;18;18;
57451;PMS7003;54295;51.224;-0.164;2022-09-02T06:56:22;19;19;
57451;PMS7003;54295;51.224;-0.164;2022-09-02T06:58:49;20;20;
57451;PMS7003;54295;51.224;-0.164;2022-09-02T07:01:17;21;20;
57451;PMS7003;54295;51.224;-0.164;2022-09-02T07:03:46;18;18;
57451;PMS7003;54295;51.224;-0.164;2022-09-02T07:06:14;21;21;
57451;PMS7003;54295;51.224;-0.164;2022-09-02T07:08:42;18;18;
57451;PMS7003;54295;51.224;-0.164;2022-09-02T07:11:14;21;19;
57451;PMS7003;54295;51.224;-0.164;2022-09-02T07:13:44;20;16;
57451;PMS7003;54295;51.224;-0.164;2022-09-02T07:16:12;21;19;
57451;PMS7003;54295;51.224;-0.164;2022-09-02T07:18:40;20;18;
57451;PMS7003;54295;51.224;-0.164;2022-09-02T07:21:16;19;18;
57451;PMS7003;54295;51.224;-0.164;2022-09-02T07:23:51;23;23;
57451;PMS7003;54295;51.224;-0.164;2022-09-02T07:26:30;24;24;
57451;PMS7003;54295;51.224;-0.164;2022-09-02T07:28:58;22;22;
57451;PMS7003;54295;51.224;-0.164;2022-09-02T07:31:26;24;23;
57451;PMS7003;54295;51.224;-0.164;2022-09-02T07:33:53;23;22;
57451;PMS7003;54295;51.224;-0.164;2022-09-02T07:36:21;21;21;
57451;PMS7003;54295;51.224;-0.164;2022-09-02T07:38:48;18;17;
57451;PMS7003;54295;51.224;-0.164;2022-09-02T07:41:15;21;21;
57451;PMS7003;54295;51.224;-0.164;2022-09-02T07:43:42;21;20;
57451;PMS7003;54295;51.224;-0.164;2022-09-02T07:46:09;19;19;
57451;PMS7003;54295;51.224;-0.164;2022-09-02T07:48:37;16;16;
57451;PMS7003;54295;51.224;-0.164;2022-09-02T07:51:04;17;16;
57451;PMS7003;54295;51.224;-0.164;2022-09-02T07:53:32;18;18;
57451;PMS7003;54295;51.224;-0.164;2022-09-02T07:56:00;18;17;
57451;PMS7003;54295;51.224;-0.164;2022-09-02T07:58:28;16;15;
57451;PMS7003;54295;51.224;-0.164;2022-09-02T08:00:56;19;18;
57451;PMS7003;54295;51.224;-0.164;2022-09-02T08:03:23;18;17;
57451;PMS7003;54295;51.224;-0.164;2022-09-02T08:05:51;17;17;
57451;PMS7003;54295;51.224;-0.164;2022-09-02T08:08:19;16;16;
57451;PMS7003;54295;51.224;-0.164;2022-09-02T08:10:47;17;16;
57451;PMS7003;54295;51.224;-0.164;2022-09-02T08:13:15;12;11;
57451;PMS7003;54295;51.224;-0.164;2022-09-02T08:15:44;17;16;
57451;PMS7003;54295;51.224;-0.164;2022-09-02T08:18:11;17;16;
57451;PMS7003;54295;51.224;-0.164;2022-09-02T08:20:39;14;14;
57451;PMS7003;54295;51.224;-0.164;2022-09-02T08:23:06;16;16;
57451;PMS7003;54295;51.224;-0.164;2022-09-02T08:25:33;16;16;
57451;PMS7003;54295;51.224;-0.164;2022-09-02T08:28:01;20;18;
57451;PMS7003;54295;51.224;-0.164;2022-09-02T08:30:29;17;17;
57451;PMS7003;54295;51.224;-0.164;2022-09-02T08:32:56;17;16;
57451;PMS7003;54295;51.224;-0.164;2022-09-02T08:35:23;19;18;
57451;PMS7003;54295;51.224;-0.164;2022-09-02T08:37:50;17;17;
57451;PMS7003;54295;51.224;-0.164;2022-09-02T08:40:19;19;18;
57451;PMS7003;54295;51.224;-0.164;2022-09-02T08:42:48;19;18;
57451;PMS7003;54295;51.224;-0.164;2022-09-02T08:45:19;18;18;
57451;PMS7003;54295;51.224;-0.164;2022-09-02T08:47:57;20;20;
57451;PMS7003;54295;51.224;-0.164;2022-09-02T08:50:30;18;17;
57451;PMS7003;54295;51.224;-0.164;2022-09-02T08:53:00;19;18;
57451;PMS7003;54295;51.224;-0.164;2022-09-02T08:55:34;17;16;
57451;PMS7003;54295;51.224;-0.164;2022-09-02T08:58:06;18;18;
57451;PMS7003;54295;51.224;-0.164;2022-09-02T09:00:34;22;21;
57451;PMS7003;54295;51.224;-0.164;2022-09-02T09:03:12;19;18;
57451;PMS7003;54295;51.224;-0.164;2022-09-02T09:05:48;17;17;
57451;PMS7003;54295;51.224;-0.164;2022-09-02T09:08:27;19;19;
57451;PMS7003;54295;51.224;-0.164;2022-09-02T09:11:07;18;18;
57451;PMS7003;54295;51.224;-0.164;2022-09-02T09:13:45;25;23;
57451;PMS7003;54295;51.224;-0.164;2022-09-02T09:16:25;22;22;
57451;PMS7003;54295;51.224;-0.164;2022-09-02T09:19:02;23;23;
57451;PMS7003;54295;51.224;-0.164;2022-09-02T09:21:36;21;21;
57451;PMS7003;54295;51.224;-0.164;2022-09-02T09:24:06;20;20;
57451;PMS7003;54295;51.224;-0.164;2022-09-02T09:26:37;22;22;
57451;PMS7003;54295;51.224;-0.164;2022-09-02T09:29:06;23;22;
57451;PMS7003;54295;51.224;-0.164;2022-09-02T09:31:33;23;22;
57451;PMS7003;54295;51.224;-0.164;2022-09-02T09:34:02;23;20;
57451;PMS7003;54295;51.224;-0.164;2022-09-02T09:36:48;23;23;
57451;PMS7003;54295;51.224;-0.164;2022-09-02T09:39:19;21;21;
57451;PMS7003;54295;51.224;-0.164;2022-09-02T09:41:54;24;22;
57451;PMS7003;54295;51.224;-0.164;2022-09-02T09:44:40;27;26;
57451;PMS7003;54295;51.224;-0.164;2022-09-02T09:47:09;24;23;
57451;PMS7003;54295;51.224;-0.164;2022-09-02T09:49:39;22;20;
57451;PMS7003;54295;51.224;-0.164;2022-09-02T09:52:06;24;23;
57451;PMS7003;54295;51.224;-0.164;2022-09-02T09:54:37;22;22;
57451;PMS7003;54295;51.224;-0.164;2022-09-02T09:57:13;23;22;
57451;PMS7003;54295;51.224;-0.164;2022-09-02T09:59:54;18;17;
57451;PMS7003;54295;51.224;-0.164;2022-09-02T10:02:44;24;23;
57451;PMS7003;54295;51.224;-0.164;2022-09-02T10:05:18;23;22;
57451;PMS7003;54295;51.224;-0.164;2022-09-02T10:07:55;24;24;
57451;PMS7003;54295;51.224;-0.164;2022-09-02T10:10:24;23;22;
57451;PMS7003;54295;51.224;-0.164;2022-09-02T10:13:00;20;20;
57451;PMS7003;54295;51.224;-0.164;2022-09-02T10:15:47;23;21;
57451;PMS7003;54295;51.224;-0.164;2022-09-02T10:18:26;22;21;
57451;PMS7003;54295;51.224;-0.164;2022-09-02T10:21:01;20;19;
57451;PMS7003;54295;51.224;-0.164;2022-09-02T10:23:36;21;20;
57451;PMS7003;54295;51.224;-0.164;2022-09-02T10:26:12;19;17;
57451;PMS7003;54295;51.224;-0.164;2022-09-02T10:29:57;17;16;
57451;PMS7003;54295;51.224;-0.164;2022-09-02T10:32:34;19;19;
57451;PMS7003;54295;51.224;-0.164;2022-09-02T10:35:11;19;19;
57451;PMS7003;54295;51.224;-0.164;2022-09-02T10:37:57;18;18;
57451;PMS7003;54295;51.224;-0.164;2022-09-02T10:40:33;17;16;
57451;PMS7003;54295;51.224;-0.164;2022-09-02T10:43:04;18;18;
57451;PMS7003;54295;51.224;-0.164;2022-09-02T10:45:35;15;15;
57451;PMS7003;54295;51.224;-0.164;2022-09-02T10:48:14;14;14;
57451;PMS7003;54295;51.224;-0.164;2022-09-02T10:50:52;18;16;
57451;PMS7003;54295;51.224;-0.164;2022-09-02T10:53:29;13;13;
57451;PMS7003;54295;51.224;-0.164;2022-09-02T10:56:04;16;16;
57451;PMS7003;54295;51.224;-0.164;2022-09-02T10:58:38;17;17;
57451;PMS7003;54295;51.224;-0.164;2022-09-02T11:01:12;15;15;
57451;PMS7003;54295;51.224;-0.164;2022-09-02T11:03:48;15;15;
57451;PMS7003;54295;51.224;-0.164;2022-09-02T11:06:28;13;13;
57451;PMS7003;54295;51.224;-0.164;2022-09-02T11:09:00;15;15;
57451;PMS7003;54295;51.224;-0.164;2022-09-02T11:11:31;16;15;
57451;PMS7003;54295;51.224;-0.164;2022-09-02T11:14:09;15;14;
57451;PMS7003;54295;51.224;-0.164;2022-09-02T11:16:43;15;15;
57451;PMS7003;54295;51.224;-0.164;2022-09-02T11:19:17;15;14;
57451;PMS7003;54295;51.224;-0.164;2022-09-02T11:21:49;12;12;
57451;PMS7003;54295;51.224;-0.164;2022-09-02T11:24:23;13;13;
57451;PMS7003;54295;51.224;-0.164;2022-09-02T11:26:57;12;12;
57451;PMS7003;54295;51.224;-0.164;2022-09-02T11:29:34;13;12;
57451;PMS7003;54295;51.224;-0.164;2022-09-02T11:32:09;12;12;
57451;PMS7003;54295;51.224;-0.164;2022-09-02T11:34:43;12;12;
57451;PMS7003;54295;51.224;-0.164;2022-09-02T11:37:22;11;11;
57451;PMS7003;54295;51.224;-0.164;2022-09-02T11:39:55;11;11;
57451;PMS7003;54295;51.224;-0.164;2022-09-02T11:42:31;13;12;
57451;PMS7003;54295;51.224;-0.164;2022-09-02T11:45:12;11;11;
57451;PMS7003;54295;51.224;-0.164;2022-09-02T11:48:00;9;9;
57451;PMS7003;54295;51.224;-0.164;2022-09-02T11:50:45;9;8;
57451;PMS7003;54295;51.224;-0.164;2022-09-02T11:53:26;12;11;
57451;PMS7003;54295;51.224;-0.164;2022-09-02T11:55:58;11;10;
57451;PMS7003;54295;51.224;-0.164;2022-09-02T11:58:31;13;12;
57451;PMS7003;54295;51.224;-0.164;2022-09-02T12:01:05;10;10;
57451;PMS7003;54295;51.224;-0.164;2022-09-02T12:03:48;11;11;
57451;PMS7003;54295;51.224;-0.164;2022-09-02T12:06:19;13;13;
57451;PMS7003;54295;51.224;-0.164;2022-09-02T12:08:56;13;11;
57451;PMS7003;54295;51.224;-0.164;2022-09-02T12:11:36;11;10;
57451;PMS7003;54295;51.224;-0.164;2022-09-02T12:14:06;10;10;
57451;PMS7003;54295;51.224;-0.164;2022-09-02T12:16:36;10;10;
57451;PMS7003;54295;51.224;-0.164;2022-09-02T12:19:40;11;10;
57451;PMS7003;54295;51.224;-0.164;2022-09-02T12:22:26;11;11;
57451;PMS7003;54295;51.224;-0.164;2022-09-02T12:24:59;11;10;
57451;PMS7003;54295;51.224;-0.164;2022-09-02T12:27:27;11;10;
57451;PMS7003;54295;51.224;-0.164;2022-09-02T12:29:58;8;8;
57451;PMS7003;54295;51.224;-0.164;2022-09-02T12:33:31;11;11;
57451;PMS7003;54295;51.224;-0.164;2022-09-02T12:36:00;11;11;
57451;PMS7003;54295;51.224;-0.164;2022-09-02T12:38:29;8;8;
57451;PMS7003;54295;51.224;-0.164;2022-09-02T12:41:14;9;9;
57451;PMS7003;54295;51.224;-0.164;2022-09-02T12:43:51;10;10;
57451;PMS7003;54295;51.224;-0.164;2022-09-02T12:46:31;11;11;
57451;PMS7003;54295;51.224;-0.164;2022-09-02T12:49:14;10;9;
57451;PMS7003;54295;51.224;-0.164;2022-09-02T12:51:54;10;9;
57451;PMS7003;54295;51.224;-0.164;2022-09-02T12:54:25;10;10;
57451;PMS7003;54295;51.224;-0.164;2022-09-02T12:57:00;11;10;
57451;PMS7003;54295;51.224;-0.164;2022-09-02T12:59:29;8;8;
57451;PMS7003;54295;51.224;-0.164;2022-09-02T13:02:02;11;11;
57451;PMS7003;54295;51.224;-0.164;2022-09-02T13:04:41;9;9;
57451;PMS7003;54295;51.224;-0.164;2022-09-02T13:07:27;12;11;
57451;PMS7003;54295;51.224;-0.164;2022-09-02T13:10:18;9;9;
57451;PMS7003;54295;51.224;-0.164;2022-09-02T13:13:03;10;10;
57451;PMS7003;54295;51.224;-0.164;2022-09-02T13:16:09;9;9;
57451;PMS7003;54295;51.224;-0.164;2022-09-02T13:18:44;11;10;
57451;PMS7003;54295;51.224;-0.164;2022-09-02T13:21:33;11;11;
57451;PMS7003;54295;51.224;-0.164;2022-09-02T13:24:26;11;11;
57451;PMS7003;54295;51.224;-0.164;2022-09-02T13:27:16;10;10;
57451;PMS7003;54295;51.224;-0.164;2022-09-02T13:30:01;12;11;
57451;PMS7003;54295;51.224;-0.164;2022-09-02T13:32:33;9;9;
57451;PMS7003;54295;51.224;-0.164;2022-09-02T13:35:02;11;11;
57451;PMS7003;54295;51.224;-0.164;2022-09-02T13:37:32;12;12;
57451;PMS7003;54295;51.224;-0.164;2022-09-02T13:40:04;11;10;
57451;PMS7003;54295;51.224;-0.164;2022-09-02T13:42:45;12;12;
57451;PMS7003;54295;51.224;-0.164;2022-09-02T13:45:15;11;11;
57451;PMS7003;54295;51.224;-0.164;2022-09-02T13:47:44;9;9;
57451;PMS7003;54295;51.224;-0.164;2022-09-02T13:50:14;11;11;
57451;PMS7003;54295;51.224;-0.164;2022-09-02T13:52:45;12;12;
57451;PMS7003;54295;51.224;-0.164;2022-09-02T13:55:15;12;12;
57451;PMS7003;54295;51.224;-0.164;2022-09-02T13:57:44;14;13;
57451;PMS7003;54295;51.224;-0.164;2022-09-02T14:00:15;11;11;
57451;PMS7003;54295;51.224;-0.164;2022-09-02T14:02:56;13;12;
57451;PMS7003;54295;51.224;-0.164;2022-09-02T14:05:26;13;12;
57451;PMS7003;54295;51.224;-0.164;2022-09-02T14:07:55;12;12;
57451;PMS7003;54295;51.224;-0.164;2022-09-02T14:10:26;11;11;
57451;PMS7003;54295;51.224;-0.164;2022-09-02T14:12:54;11;10;
57451;PMS7003;54295;51.224;-0.164;2022-09-02T14:15:24;13;12;
57451;PMS7003;54295;51.224;-0.164;2022-09-02T14:18:09;11;11;
57451;PMS7003;54295;51.224;-0.164;2022-09-02T14:20:39;15;15;
57451;PMS7003;54295;51.224;-0.164;2022-09-02T14:23:19;43;42;
57451;PMS7003;54295;51.224;-0.164;2022-09-02T14:25:49;28;28;
57451;PMS7003;54295;51.224;-0.164;2022-09-02T14:28:18;28;26;
57451;PMS7003;54295;51.224;-0.164;2022-09-02T14:30:57;56;55;
57451;PMS7003;54295;51.224;-0.164;2022-09-02T14:33:36;18;16;
57451;PMS7003;54295;51.224;-0.164;2022-09-02T14:36:06;16;15;
57451;PMS7003;54295;51.224;-0.164;2022-09-02T14:38:35;17;17;
57451;PMS7003;54295;51.224;-0.164;2022-09-02T14:41:18;16;15;
57451;PMS7003;54295;51.224;-0.164;2022-09-02T14:43:48;11;10;
57451;PMS7003;54295;51.224;-0.164;2022-09-02T14:46:34;14;13;
57451;PMS7003;54295;51.224;-0.164;2022-09-02T14:49:06;15;14;
57451;PMS7003;54295;51.224;-0.164;2022-09-02T14:51:35;14;14;
57451;PMS7003;54295;51.224;-0.164;2022-09-02T14:54:04;11;11;
57451;PMS7003;54295;51.224;-0.164;2022-09-02T14:56:49;13;13;
57451;PMS7003;54295;51.224;-0.164;2022-09-02T14:59:17;15;15;
57451;PMS7003;54295;51.224;-0.164;2022-09-02T15:01:46;13;13;
57451;PMS7003;54295;51.224;-0.164;2022-09-02T15:04:15;13;12;
57451;PMS7003;54295;51.224;-0.164;2022-09-02T15:06:57;13;13;
57451;PMS7003;54295;51.224;-0.164;2022-09-02T15:09:34;14;14;
57451;PMS7003;54295;51.224;-0.164;2022-09-02T15:12:01;17;15;
57451;PMS7003;54295;51.224;-0.164;2022-09-02T15:14:28;18;18;
57451;PMS7003;54295;51.224;-0.164;2022-09-02T15:16:56;15;15;
57451;PMS7003;54295;51.224;-0.164;2022-09-02T15:19:23;17;15;
57451;PMS7003;54295;51.224;-0.164;2022-09-02T15:21:50;17;17;
57451;PMS7003;54295;51.224;-0.164;2022-09-02T15:24:18;18;17;
57451;PMS7003;54295;51.224;-0.164;2022-09-02T15:26:45;21;19;
57451;PMS7003;54295;51.224;-0.164;2022-09-02T15:29:12;18;17;
57451;PMS7003;54295;51.224;-0.164;2022-09-02T15:31:39;13;13;
57451;PMS7003;54295;51.224;-0.164;2022-09-02T15:34:06;16;15;
57451;PMS7003;54295;51.224;-0.164;2022-09-02T15:36:33;14;14;
57451;PMS7003;54295;51.224;-0.164;2022-09-02T15:39:00;15;15;
57451;PMS7003;54295;51.224;-0.164;2022-09-02T15:41:28;14;14;
57451;PMS7003;54295;51.224;-0.164;2022-09-02T15:43:54;16;15;
57451;PMS7003;54295;51.224;-0.164;2022-09-02T15:46:23;16;16;
57451;PMS7003;54295;51.224;-0.164;2022-09-02T15:48:51;17;17;
57451;PMS7003;54295;51.224;-0.164;2022-09-02T15:51:25;17;17;
57451;PMS7003;54295;51.224;-0.164;2022-09-02T15:53:53;17;17;
57451;PMS7003;54295;51.224;-0.164;2022-09-02T15:56:21;21;20;
57451;PMS7003;54295;51.224;-0.164;2022-09-02T15:58:54;17;17;
57451;PMS7003;54295;51.224;-0.164;2022-09-02T16:01:25;18;17;
57451;PMS7003;54295;51.224;-0.164;2022-09-02T16:04:03;19;18;
57451;PMS7003;54295;51.224;-0.164;2022-09-02T16:06:46;18;18;
57451;PMS7003;54295;51.224;-0.164;2022-09-02T16:09:15;18;18;
57451;PMS7003;54295;51.224;-0.164;2022-09-02T16:11:44;19;18;
57451;PMS7003;54295;51.224;-0.164;2022-09-02T16:14:13;17;17;
57451;PMS7003;54295;51.224;-0.164;2022-09-02T16:16:41;23;22;
57451;PMS7003;54295;51.224;-0.164;2022-09-02T16:19:09;19;19;
57451;PMS7003;54295;51.224;-0.164;2022-09-02T16:21:37;17;17;
57451;PMS7003;54295;51.224;-0.164;2022-09-02T16:24:05;17;17;
57451;PMS7003;54295;51.224;-0.164;2022-09-02T16:26:34;19;18;
57451;PMS7003;54295;51.224;-0.164;2022-09-02T16:29:05;15;15;
57451;PMS7003;54295;51.224;-0.164;2022-09-02T16:31:35;14;14;